Atlas, Illinois
Current Conditions -  °F | °C
As of 5:15 AM on Saturday 25 Oct 2014 (Local Time) from KPPQ Reporting Station
Haze Haze  
Wind Chill: 60°   Ceiling: Unl
Heat Index: 60°   Visibility: 5mi
Dew Point: 58°   Wind: 5mph
Humidity: 93%   Direction: 260°W
Pressure: 30"   Gusts: NA
Location:  39.5365°N, 91.0118°W
Report Text: KPPQ 251015Z AUTO 26004KT 5SM BR CLR 16/14 A3000 RMK AO2 T01550143
Loading
Personal Weather Stations






























Interactive Weather Map
Tropical Storm Tracking
New forecast layout! Learn more

10-Day Weather Forecast

Advertisements
Track Severe Weather on mobile